Thunder radar more information blitzortung!


Radar de pluja more information rain snow radar


Visita la nostra xarxa de llocs de meteo:

Template documentation
and downloads

And another site



No particular awareness of the weather is required.    There are no Weather-warnings

Pagina Historial Weather Underground text

Diari Resum Octubre 31, 2017 Unitats:  Mètric    Imperial   Tant
« Previous Dia
SegĂźent Dia »
Diari Setmana Mensual Anual Personalitzada
  Maxima: Minima: Media:
Temperatura: 19.7 °C 10.6 °C 14.7 °C
Punt de rosada: 10.2 °C 5.7 °C 7.9 °C
Humitat: 77 % 53 % 64 %
Wind Speed: 13.0 km/h 0.0 km/h 3.5 km/h
RĂ fegues de vent: 13.0 km/h - -
Vent:- - South
Pression baro: 1024.9 hPa 1019.9 hPa -
Precipitacions: 0.0 mm    
Historical Graphs
 
 
Dades de taula per Octubre 31, 2017
Temps Temperatura Punt de rosada Pression baro Vent Wind Speed RĂ fegues de vent Humitat Rainfall Rate (Hourly)
00:02 13.7 °C 9.6 °C 1019.9 hPa Calm     76 % 0.0 mm
00:05 13.1 °C 8.2 °C 1021.9 hPa NNE 3.2 km/h 4.8 km/h 72 % 0.0 mm
00:07 13.7 °C 9.6 °C 1019.9 hPa ESE 5.0 km/h 5.0 km/h 76 % 0.0 mm
00:15 12.9 °C 8.2 °C 1021.9 hPa Calm   1.6 km/h 73 % 0.0 mm
00:25 12.8 °C 8.1 °C 1020.9 hPa North 1.6 km/h 3.2 km/h 73 % 0.0 mm
00:35 12.7 °C 7.8 °C 1020.9 hPa North 1.6 km/h 1.6 km/h 72 % 0.0 mm
00:45 12.6 °C 7.5 °C 1021.9 hPa Calm   1.6 km/h 71 % 0.0 mm
00:55 12.6 °C 7.3 °C 1021.9 hPa North 1.6 km/h 3.2 km/h 70 % 0.0 mm
01:05 12.4 °C 6.9 °C 1021.9 hPa Calm   1.6 km/h 69 % 0.0 mm
01:15 12.4 °C 6.9 °C 1021.9 hPa WNW 1.6 km/h 3.2 km/h 69 % 0.0 mm
01:25 12.4 °C 6.7 °C 1020.9 hPa NW 1.6 km/h 3.2 km/h 68 % 0.0 mm
01:45 12.2 °C 6.2 °C 1021.9 hPa WNW 1.6 km/h 4.8 km/h 67 % 0.0 mm
01:55 12.1 °C 6.2 °C 1021.9 hPa Calm   1.6 km/h 67 % 0.0 mm
02:05 11.9 °C 5.9 °C 1021.9 hPa Calm   4.8 km/h 67 % 0.0 mm
02:15 11.9 °C 5.7 °C 1022.9 hPa Calm   3.2 km/h 66 % 0.0 mm
02:25 12.0 °C 5.8 °C 1022.9 hPa West 1.6 km/h 1.6 km/h 66 % 0.0 mm
02:35 12.0 °C 5.8 °C 1022.9 hPa Calm   1.6 km/h 66 % 0.0 mm
02:45 12.2 °C 6.1 °C 1022.9 hPa Calm   1.6 km/h 66 % 0.0 mm
02:55 12.2 °C 6.1 °C 1022.9 hPa West 1.6 km/h 1.6 km/h 66 % 0.0 mm
03:05 12.4 °C 6.2 °C 1022.9 hPa Calm   3.2 km/h 66 % 0.0 mm
03:15 12.4 °C 6.2 °C 1022.9 hPa West 1.6 km/h 3.2 km/h 66 % 0.0 mm
09:24 12.4 °C 6.2 °C 1023.9 hPa NW 1.9 km/h 1.9 km/h 66 % 0.0 mm
09:25 12.4 °C 6.2 °C 1023.9 hPa NW 1.9 km/h 1.9 km/h 66 % 0.0 mm
09:30 12.5 °C 6.3 °C 1023.9 hPa WNW 1.9 km/h   66 % 0.0 mm
09:35 12.5 °C 6.3 °C 1023.9 hPa SW 3.7 km/h 3.7 km/h 66 % 0.0 mm
09:40 12.7 °C 6.5 °C 1023.9 hPa WSW 3.9 km/h 3.9 km/h 66 % 0.0 mm
09:45 12.8 °C 6.4 °C 1023.9 hPa SW 2.3 km/h   65 % 0.0 mm
09:50 12.9 °C 6.5 °C 1023.9 hPa SW 5.0 km/h 5.0 km/h 65 % 0.0 mm
09:55 13.0 °C 6.6 °C 1023.9 hPa SW 3.7 km/h 3.7 km/h 65 % 0.0 mm
10:00 13.1 °C 6.4 °C 1023.9 hPa SSW 1.9 km/h 1.9 km/h 64 % 0.0 mm
10:05 13.3 °C 6.6 °C 1023.9 hPa SW 2.3 km/h   64 % 0.0 mm
10:10 13.7 °C 7.0 °C 1023.9 hPa SE 2.6 km/h 2.6 km/h 64 % 0.0 mm
10:15 13.9 °C 7.2 °C 1023.9 hPa South 4.7 km/h 4.7 km/h 64 % 0.0 mm
10:20 13.9 °C 6.9 °C 1023.9 hPa SW 3.7 km/h 3.7 km/h 63 % 0.0 mm
10:25 14.0 °C 7.3 °C 1023.9 hPa WSW 5.0 km/h 5.0 km/h 64 % 0.0 mm
10:30 14.2 °C 7.3 °C 1023.9 hPa SW 3.2 km/h   63 % 0.0 mm
10:35 14.3 °C 7.3 °C 1023.9 hPa SW 4.2 km/h 4.2 km/h 63 % 0.0 mm
10:40 14.6 °C 7.6 °C 1023.9 hPa NNW 2.6 km/h 2.6 km/h 63 % 0.0 mm
10:45 14.6 °C 7.4 °C 1023.9 hPa NNE 5.6 km/h 5.6 km/h 62 % 0.0 mm
10:50 14.7 °C 7.5 °C 1023.9 hPa NNE 1.9 km/h   62 % 0.0 mm
10:55 14.5 °C 7.3 °C 1023.9 hPa WNW 3.7 km/h 3.9 km/h 62 % 0.0 mm
11:00 14.5 °C 7.3 °C 1023.9 hPa NE 3.7 km/h 3.7 km/h 62 % 0.0 mm
11:05 14.4 °C 7.2 °C 1023.9 hPa ENE 5.6 km/h 5.6 km/h 62 % 0.0 mm
11:10 14.5 °C 7.3 °C 1023.9 hPa NNW 5.6 km/h 5.6 km/h 62 % 0.0 mm
11:15 14.3 °C 7.1 °C 1023.9 hPa NNE 5.6 km/h 5.6 km/h 62 % 0.0 mm
11:20 14.3 °C 6.9 °C 1023.9 hPa NNE 9.5 km/h 9.5 km/h 61 % 0.0 mm
11:25 14.2 °C 7.0 °C 1023.9 hPa NNE 6.4 km/h 6.4 km/h 62 % 0.0 mm
11:30 14.4 °C 7.2 °C 1023.9 hPa NE 3.7 km/h 3.7 km/h 62 % 0.0 mm
11:35 14.4 °C 7.2 °C 1023.9 hPa ENE 7.4 km/h 7.4 km/h 62 % 0.0 mm
11:40 14.5 °C 7.3 °C 1022.9 hPa NE 3.9 km/h 3.9 km/h 62 % 0.0 mm
11:45 15.1 °C 7.9 °C 1022.9 hPa NNE 5.6 km/h 5.6 km/h 62 % 0.0 mm
11:50 15.2 °C 7.7 °C 1022.9 hPa NNE 5.6 km/h 5.6 km/h 61 % 0.0 mm
11:55 15.3 °C 7.8 °C 1022.9 hPa ENE 1.9 km/h 1.9 km/h 61 % 0.0 mm
12:00 15.2 °C 7.7 °C 1022.9 hPa ENE 3.7 km/h 3.9 km/h 61 % 0.0 mm
12:05 15.1 °C 7.4 °C 1022.9 hPa ESE 3.7 km/h 3.7 km/h 60 % 0.0 mm
12:10 15.3 °C 7.8 °C 1022.9 hPa ENE 3.7 km/h 3.7 km/h 61 % 0.0 mm
12:15 15.3 °C 7.6 °C 1022.9 hPa NE 5.6 km/h 5.6 km/h 60 % 0.0 mm
12:20 15.9 °C 8.4 °C 1022.9 hPa NNE 3.7 km/h 3.7 km/h 61 % 0.0 mm
12:25 16.0 °C 8.2 °C 1022.9 hPa WNW 3.7 km/h 3.7 km/h 60 % 0.0 mm
12:30 16.4 °C 8.6 °C 1022.9 hPa Calm     60 % 0.0 mm
12:35 16.9 °C 8.8 °C 1022.9 hPa SSE 7.6 km/h 7.6 km/h 59 % 0.0 mm
12:40 16.5 °C 8.4 °C 1022.9 hPa SW 1.9 km/h 1.9 km/h 59 % 0.0 mm
12:45 16.6 °C 8.8 °C 1022.9 hPa WNW 3.7 km/h 3.7 km/h 60 % 0.0 mm
12:50 16.7 °C 8.7 °C 1022.9 hPa East 4.2 km/h 4.2 km/h 59 % 0.0 mm
12:55 16.7 °C 8.7 °C 1022.9 hPa NNW 3.7 km/h 3.7 km/h 59 % 0.0 mm
13:00 16.6 °C 8.3 °C 1022.9 hPa East 3.7 km/h 3.7 km/h 58 % 0.0 mm
13:10 16.9 °C 8.8 °C 1022.9 hPa SSE 3.7 km/h 3.7 km/h 59 % 0.0 mm
13:15 17.2 °C 8.8 °C 1022.9 hPa SSW 5.6 km/h 5.6 km/h 58 % 0.0 mm
13:20 17.5 °C 9.2 °C 1022.9 hPa SW 5.6 km/h 5.6 km/h 58 % 0.0 mm
13:25 18.0 °C 9.6 °C 1021.9 hPa SW 5.6 km/h 5.6 km/h 58 % 0.0 mm
13:30 18.2 °C 9.6 °C 1021.9 hPa SSW 7.4 km/h 7.4 km/h 57 % 0.0 mm
13:35 17.9 °C 9.3 °C 1021.9 hPa SW 4.7 km/h 4.7 km/h 57 % 0.0 mm
13:40 17.5 °C 8.9 °C 1021.9 hPa SW 5.6 km/h 5.6 km/h 57 % 0.0 mm
13:45 17.4 °C 8.5 °C 1021.9 hPa ESE 5.6 km/h 5.6 km/h 56 % 0.0 mm
13:50 17.7 °C 9.1 °C 1021.9 hPa WNW 9.3 km/h 9.3 km/h 57 % 0.0 mm
13:55 17.8 °C 9.2 °C 1021.9 hPa SW 9.3 km/h 9.3 km/h 57 % 0.0 mm
14:00 18.2 °C 9.3 °C 1021.9 hPa SSE 5.6 km/h 5.6 km/h 56 % 0.0 mm
14:05 18.0 °C 9.1 °C 1021.9 hPa South 5.6 km/h 5.6 km/h 56 % 0.0 mm
14:10 18.2 °C 9.3 °C 1021.9 hPa SW 9.3 km/h 9.3 km/h 56 % 0.0 mm
14:15 18.3 °C 9.4 °C 1021.9 hPa WSW 9.3 km/h 9.3 km/h 56 % 0.0 mm
14:20 18.4 °C 9.4 °C 1021.9 hPa SSE 7.4 km/h 7.4 km/h 56 % 0.0 mm
14:25 18.5 °C 9.3 °C 1021.9 hPa SSE 9.3 km/h 9.3 km/h 55 % 0.0 mm
14:30 18.7 °C 9.7 °C 1021.9 hPa South 4.2 km/h 4.2 km/h 56 % 0.0 mm
14:35 19.0 °C 9.5 °C 1021.9 hPa SSW 3.7 km/h 3.7 km/h 54 % 0.0 mm
14:40 19.2 °C 9.7 °C 1021.9 hPa SW 3.7 km/h 3.7 km/h 54 % 0.0 mm
14:45 19.4 °C 9.8 °C 1021.9 hPa SW 7.6 km/h 7.6 km/h 54 % 0.0 mm
14:50 19.5 °C 10.2 °C 1021.9 hPa SSW 9.5 km/h 9.5 km/h 55 % 0.0 mm
14:55 19.4 °C 9.8 °C 1021.9 hPa SW 7.4 km/h 7.4 km/h 54 % 0.0 mm
15:00 19.6 °C 10.1 °C 1021.9 hPa West 3.7 km/h 3.7 km/h 54 % 0.0 mm
15:05 19.7 °C 10.1 °C 1021.9 hPa South 5.6 km/h 5.6 km/h 54 % 0.0 mm
15:10 19.7 °C 10.1 °C 1021.9 hPa SW 11.1 km/h 11.1 km/h 54 % 0.0 mm
15:15 19.4 °C 9.6 °C 1021.9 hPa South 3.7 km/h 3.7 km/h 53 % 0.0 mm
15:20 19.5 °C 9.9 °C 1021.9 hPa SW 13.0 km/h 13.0 km/h 54 % 0.0 mm
15:25 19.5 °C 9.9 °C 1021.9 hPa SW 6.1 km/h 6.1 km/h 54 % 0.0 mm
15:30 19.4 °C 9.8 °C 1021.9 hPa SW 7.4 km/h 7.4 km/h 54 % 0.0 mm
15:35 19.4 °C 9.6 °C 1021.9 hPa WSW 9.3 km/h 9.3 km/h 53 % 0.0 mm
15:40 19.4 °C 9.8 °C 1021.9 hPa SW 7.4 km/h 7.4 km/h 54 % 0.0 mm
15:45 19.5 °C 9.9 °C 1021.9 hPa West 9.3 km/h 9.3 km/h 54 % 0.0 mm
15:50 19.2 °C 9.7 °C 1021.9 hPa SW 7.4 km/h 7.4 km/h 54 % 0.0 mm
15:55 19.2 °C 9.7 °C 1021.9 hPa WSW 5.6 km/h 5.6 km/h 54 % 0.0 mm
16:00 19.3 °C 10.1 °C 1021.9 hPa SSW 7.4 km/h 7.4 km/h 55 % 0.0 mm
16:05 19.1 °C 9.8 °C 1021.9 hPa SSW 7.4 km/h 7.4 km/h 55 % 0.0 mm
16:10 18.9 °C 9.9 °C 1021.9 hPa WSW 7.4 km/h 7.4 km/h 56 % 0.0 mm
16:15 18.7 °C 9.7 °C 1021.9 hPa SSW 9.3 km/h 9.3 km/h 56 % 0.0 mm
16:20 18.4 °C 9.4 °C 1021.9 hPa SW 13.0 km/h 13.0 km/h 56 % 0.0 mm
16:25 18.2 °C 9.3 °C 1021.9 hPa SSW 7.4 km/h 7.4 km/h 56 % 0.0 mm
16:30 18.2 °C 9.3 °C 1021.9 hPa WSW 7.4 km/h 7.4 km/h 56 % 0.0 mm
16:35 18.1 °C 9.2 °C 1021.9 hPa SW 7.4 km/h 7.4 km/h 56 % 0.0 mm
16:40 18.0 °C 9.1 °C 1021.9 hPa SW 9.3 km/h 9.3 km/h 56 % 0.0 mm
16:45 17.9 °C 9.3 °C 1021.9 hPa SSW 8.7 km/h 8.7 km/h 57 % 0.0 mm
16:50 17.6 °C 9.0 °C 1021.9 hPa SW 9.5 km/h 9.5 km/h 57 % 0.0 mm
16:55 17.5 °C 8.9 °C 1020.9 hPa SW 9.3 km/h 9.3 km/h 57 % 0.0 mm
17:00 17.4 °C 8.8 °C 1020.9 hPa WSW 11.1 km/h 11.1 km/h 57 % 0.0 mm
17:05 17.3 °C 8.7 °C 1020.9 hPa SSW 9.3 km/h 9.3 km/h 57 % 0.0 mm
17:10 17.0 °C 8.7 °C 1020.9 hPa SW 7.4 km/h 7.4 km/h 58 % 0.0 mm
17:15 16.8 °C 8.7 °C 1020.9 hPa WSW 9.3 km/h 9.3 km/h 59 % 0.0 mm
17:20 16.7 °C 8.7 °C 1020.9 hPa WSW 5.6 km/h 5.6 km/h 59 % 0.0 mm
17:25 16.5 °C 8.7 °C 1021.9 hPa West 5.6 km/h 5.6 km/h 60 % 0.0 mm
17:30 16.3 °C 8.5 °C 1021.9 hPa SW 5.6 km/h 5.6 km/h 60 % 0.0 mm
17:35 16.1 °C 8.3 °C 1021.9 hPa SW 5.6 km/h 5.6 km/h 60 % 0.0 mm
17:40 16.0 °C 8.5 °C 1021.9 hPa SW 3.7 km/h 3.7 km/h 61 % 0.0 mm
17:45 15.8 °C 8.3 °C 1021.9 hPa WSW 5.6 km/h 5.6 km/h 61 % 0.0 mm
17:50 15.6 °C 8.1 °C 1021.9 hPa SW 3.7 km/h 3.7 km/h 61 % 0.0 mm
17:55 15.5 °C 8.0 °C 1021.9 hPa WSW 5.6 km/h 5.6 km/h 61 % 0.0 mm
18:00 15.4 °C 8.2 °C 1021.9 hPa WSW 3.7 km/h 3.7 km/h 62 % 0.0 mm
18:05 15.3 °C 8.1 °C 1021.9 hPa Calm     62 % 0.0 mm
18:10 15.1 °C 8.1 °C 1021.9 hPa Calm     63 % 0.0 mm
18:15 15.0 °C 8.0 °C 1021.9 hPa SE 1.9 km/h   63 % 0.0 mm
18:16 15.0 °C 8.0 °C 1021.9 hPa SE 1.9 km/h   63 % 0.0 mm
18:21 14.9 °C 7.9 °C 1021.9 hPa Calm     63 % 0.0 mm
18:26 14.8 °C 8.1 °C 1022.9 hPa Calm     64 % 0.0 mm
18:31 14.8 °C 8.1 °C 1022.9 hPa Calm     64 % 0.0 mm
18:36 14.7 °C 7.9 °C 1022.9 hPa Calm     64 % 0.0 mm
18:41 14.6 °C 7.9 °C 1022.9 hPa Calm     64 % 0.0 mm
18:46 14.6 °C 7.9 °C 1022.9 hPa Calm     64 % 0.0 mm
18:51 14.6 °C 8.1 °C 1022.9 hPa ESE 1.9 km/h 1.9 km/h 65 % 0.0 mm
18:56 14.5 °C 8.0 °C 1022.9 hPa Calm     65 % 0.0 mm
19:01 14.3 °C 7.8 °C 1022.9 hPa Calm     65 % 0.0 mm
19:06 14.3 °C 8.1 °C 1022.9 hPa Calm     66 % 0.0 mm
19:11 14.2 °C 7.9 °C 1022.9 hPa Calm     66 % 0.0 mm
19:16 14.2 °C 7.9 °C 1022.9 hPa NE 1.9 km/h 1.9 km/h 66 % 0.0 mm
19:21 14.1 °C 7.8 °C 1022.9 hPa Calm     66 % 0.0 mm
19:26 14.1 °C 7.8 °C 1022.9 hPa NE 1.9 km/h 1.9 km/h 66 % 0.0 mm
19:31 14.0 °C 7.7 °C 1022.9 hPa Calm     66 % 0.0 mm
19:36 14.1 °C 7.8 °C 1022.9 hPa WNW 1.9 km/h   66 % 0.0 mm
19:41 14.0 °C 7.9 °C 1022.9 hPa Calm     67 % 0.0 mm
19:46 14.0 °C 7.9 °C 1022.9 hPa WNW 1.9 km/h   67 % 0.0 mm
19:51 13.9 °C 7.9 °C 1022.9 hPa Calm     67 % 0.0 mm
19:56 13.8 °C 8.0 °C 1022.9 hPa Calm     68 % 0.0 mm
20:01 13.7 °C 7.9 °C 1022.9 hPa NNE 2.3 km/h 2.3 km/h 68 % 0.0 mm
20:06 13.4 °C 7.6 °C 1022.9 hPa NNE 1.9 km/h 1.9 km/h 68 % 0.0 mm
20:11 13.4 °C 7.8 °C 1022.9 hPa NNE 2.3 km/h 2.3 km/h 69 % 0.0 mm
20:16 13.3 °C 7.7 °C 1022.9 hPa Calm     69 % 0.0 mm
20:21 13.2 °C 7.6 °C 1022.9 hPa Calm     69 % 0.0 mm
20:26 13.1 °C 7.6 °C 1023.9 hPa Calm     69 % 0.0 mm
20:31 13.1 °C 7.6 °C 1023.9 hPa Calm     69 % 0.0 mm
20:36 13.0 °C 7.7 °C 1023.9 hPa NNE 1.9 km/h   70 % 0.0 mm
20:37 13.0 °C 7.7 °C 1023.9 hPa NNE 1.9 km/h   70 % 0.0 mm
20:42 12.9 °C 7.6 °C 1023.9 hPa Calm     70 % 0.0 mm
20:47 12.8 °C 7.4 °C 1023.9 hPa Calm     70 % 0.0 mm
20:52 12.7 °C 7.4 °C 1023.9 hPa Calm     70 % 0.0 mm
20:57 12.5 °C 7.2 °C 1023.9 hPa Calm     70 % 0.0 mm
21:02 12.3 °C 7.0 °C 1023.9 hPa West 3.7 km/h 3.7 km/h 70 % 0.0 mm
21:07 12.2 °C 7.1 °C 1023.9 hPa West 2.6 km/h 2.6 km/h 71 % 0.0 mm
21:12 12.2 °C 7.1 °C 1023.9 hPa West 3.2 km/h 3.2 km/h 71 % 0.0 mm
21:17 12.2 °C 7.1 °C 1023.9 hPa West 2.3 km/h 2.3 km/h 71 % 0.0 mm
21:22 12.3 °C 7.4 °C 1023.9 hPa Calm     72 % 0.0 mm
21:27 12.3 °C 7.4 °C 1023.9 hPa West 2.3 km/h   72 % 0.0 mm
21:32 12.3 °C 7.4 °C 1023.9 hPa West 2.3 km/h 2.3 km/h 72 % 0.0 mm
21:37 12.2 °C 7.5 °C 1023.9 hPa West 1.9 km/h   73 % 0.0 mm
21:42 12.1 °C 7.4 °C 1023.9 hPa West 1.9 km/h   73 % 0.0 mm
21:47 12.1 °C 7.4 °C 1023.9 hPa West 1.9 km/h 1.9 km/h 73 % 0.0 mm
21:52 12.0 °C 7.3 °C 1024.9 hPa Calm     73 % 0.0 mm
21:57 12.0 °C 7.3 °C 1024.9 hPa Calm     73 % 0.0 mm
22:02 12.0 °C 7.5 °C 1024.9 hPa Calm     74 % 0.0 mm
22:07 11.9 °C 7.4 °C 1023.9 hPa Calm     74 % 0.0 mm
22:12 11.9 °C 7.4 °C 1023.9 hPa Calm     74 % 0.0 mm
22:17 11.9 °C 7.6 °C 1023.9 hPa Calm     75 % 0.0 mm
22:22 11.8 °C 7.3 °C 1023.9 hPa Calm     74 % 0.0 mm
22:27 11.8 °C 7.5 °C 1023.9 hPa Calm     75 % 0.0 mm
22:32 11.8 °C 7.5 °C 1023.9 hPa Calm     75 % 0.0 mm
22:37 11.7 °C 7.4 °C 1023.9 hPa Calm     75 % 0.0 mm
22:42 11.7 °C 7.4 °C 1023.9 hPa Calm     75 % 0.0 mm
22:47 11.6 °C 7.3 °C 1023.9 hPa Calm     75 % 0.0 mm
22:52 11.6 °C 7.3 °C 1023.9 hPa Calm     75 % 0.0 mm
22:57 11.5 °C 7.2 °C 1023.9 hPa WNW 1.9 km/h   75 % 0.0 mm
23:02 11.4 °C 7.1 °C 1023.9 hPa Calm     75 % 0.0 mm
23:07 11.3 °C 7.0 °C 1023.9 hPa WSW 2.6 km/h 2.6 km/h 75 % 0.0 mm
23:12 11.2 °C 6.9 °C 1023.9 hPa Calm     75 % 0.0 mm
23:17 11.2 °C 7.1 °C 1023.9 hPa ENE 3.2 km/h 3.2 km/h 76 % 0.0 mm
23:22 11.1 °C 7.0 °C 1023.9 hPa ENE 2.6 km/h 2.6 km/h 76 % 0.0 mm
23:27 11.0 °C 6.9 °C 1023.9 hPa ENE 2.6 km/h 2.6 km/h 76 % 0.0 mm
23:32 11.0 °C 6.9 °C 1023.9 hPa ENE 3.7 km/h 3.7 km/h 76 % 0.0 mm
23:33 10.9 °C 6.8 °C 1023.9 hPa ENE 3.7 km/h 3.7 km/h 76 % 0.0 mm
23:38 10.8 °C 6.9 °C 1023.9 hPa NE 3.7 km/h 3.7 km/h 77 % 0.0 mm
23:43 10.8 °C 6.9 °C 1023.9 hPa Calm     77 % 0.0 mm
23:48 10.7 °C 6.8 °C 1023.9 hPa Calm     77 % 0.0 mm
23:53 10.6 °C 6.7 °C 1023.9 hPa WSW 1.9 km/h 1.9 km/h 77 % 0.0 mm
23:58 10.6 °C 6.7 °C 1023.9 hPa Calm     77 % 0.0 mm
Meteo Sesrovires
Elogis d' Weather Underground - 3.5 mb

Guio original per  Jim McMurry - jmcmurry@mwt.net Adaptat per a la plantilla per  Wim van der Kuil - Leuven-Template.eu

Trobareu la nostra informacio del temps tambe a:

Weather Underground

AWEKAS